IL64 weather

Martin Airport
Lincoln, Illinois, United States

Public forecast

Using degrees Fahrenheit for public forecast. Weather courtesy of forecast.io.

Closest aviation weather report (METAR) to Martin Airport

Closest report is Logan County Airport, 7.7 nm (14.2 km) E. Retrieved 2019/11/15 21:35 UTC (21 minutes ago):

KAAA 152135Z AUTO 32003KT 10SM CLR 07/00 A3036 RMK AO2 T00651003

Closest aviation forecast (TAF) to Martin Airport

Closest forecast is Abraham Lincoln Capital Airport, 21.8 nm (40.4 km) SSW. Retrieved 2019/11/15 18:48 UTC (3 hours ago):

TAF KSPI 151744Z 1518/1618 26007KT P6SM FEW250 FM160000 06004KT P6SM SCT250 FM161000 08005KT 5SM BR SCT040 BKN100 FM161400 10006KT P6SM BKN060 FM161600 12007KT P6SM BKN045